Time;durP1;ratioP1;P1;durP2;ratioP2;P2;SDS_P1;SDS_P2;PMS_P1;PMS_P2;Temp;Humidity;BMP_temperature;BMP_pressure;BME280_temperature;BME280_humidity;BME280_pressure;Samples;Min_cycle;Max_cycle;Signal;HPM_P1;HPM_P2
2022/07/25 00:01:07;;;;;;;6.47;4.68;;;;;;;21.14;61.06;100608.94;4931613;29;20065;-86
2022/07/25 00:03:34;;;;;;;7.03;5.88;;;;;;;21.11;61.36;100603.81;4945599;29;20059;-84
2022/07/25 00:06:01;;;;;;;7.18;5.30;;;;;;;21.07;61.56;100605.75;4933551;29;20059;-84
2022/07/25 00:08:28;;;;;;;7.03;5.65;;;;;;;21.04;61.75;100603.28;4931913;29;20043;-83
2022/07/25 00:10:54;;;;;;;10.52;5.53;;;;;;;20.99;61.99;100598.19;4915613;29;20495;-85
2022/07/25 00:13:21;;;;;;;7.03;5.43;;;;;;;20.95;62.27;100595.75;4931845;29;20043;-85
2022/07/25 00:15:48;;;;;;;7.47;5.97;;;;;;;20.90;62.33;100592.50;4930129;29;20526;-85
2022/07/25 00:18:15;;;;;;;4.85;4.40;;;;;;;20.86;62.63;100581.16;4930194;29;20103;-84
2022/07/25 00:20:44;;;;;;;11.27;5.40;;;;;;;20.82;62.85;100579.63;4930036;29;20050;-84
2022/07/25 00:23:13;;;;;;;10.45;4.82;;;;;;;20.78;63.18;100583.34;4915472;28;20051;-85
2022/07/25 00:25:40;;;;;;;6.10;5.60;;;;;;;20.75;63.16;100584.38;4929109;29;20067;-89
2022/07/25 00:28:07;;;;;;;8.00;5.18;;;;;;;20.72;63.03;100581.88;4929679;29;20098;-84
2022/07/25 00:30:33;;;;;;;9.45;5.53;;;;;;;20.69;63.17;100576.72;4930291;29;20046;-83
2022/07/25 00:33:00;;;;;;;11.23;6.30;;;;;;;20.65;63.06;100572.50;4930195;29;20047;-83
2022/07/25 00:35:27;;;;;;;6.55;4.97;;;;;;;20.60;63.30;100570.06;4929209;29;20042;-85
2022/07/25 00:37:54;;;;;;;7.65;5.05;;;;;;;20.57;63.25;100572.91;4929585;29;20136;-84
2022/07/25 00:40:20;;;;;;;6.00;5.35;;;;;;;20.54;63.61;100570.38;4930238;29;20131;-84
2022/07/25 00:42:47;;;;;;;10.27;5.25;;;;;;;20.51;63.79;100570.56;4929286;29;20050;-85
2022/07/25 00:45:14;;;;;;;8.93;5.28;;;;;;;20.49;63.76;100572.41;4912630;29;20062;-85
2022/07/25 00:47:40;;;;;;;6.22;5.28;;;;;;;20.44;64.07;100561.16;4928871;29;20046;-87
2022/07/25 00:50:08;;;;;;;8.63;5.32;;;;;;;20.40;64.00;100560.47;4928054;29;20044;-84
2022/07/25 00:52:37;;;;;;;8.07;5.07;;;;;;;20.36;64.19;100560.69;4913879;29;20044;-84
2022/07/25 00:55:10;;;;;;;5.40;4.90;;;;;;;20.34;64.30;100558.13;4927813;29;20040;-86
2022/07/25 00:57:37;;;;;;;8.55;6.18;;;;;;;20.29;64.80;100561.00;4931303;29;20092;-84
2022/07/25 01:00:12;;;;;;;9.13;5.80;;;;;;;20.27;64.65;100556.72;4927415;29;20040;-85
2022/07/25 01:02:39;;;;;;;11.25;5.22;;;;;;;20.24;64.79;100548.91;4927421;29;20051;-84
2022/07/25 01:05:09;;;;;;;10.23;4.72;;;;;;;20.20;65.05;100550.84;4932473;28;20047;-84
2022/07/25 01:07:40;;;;;;;8.43;5.30;;;;;;;20.16;65.26;100546.63;4927186;29;20051;-83
2022/07/25 01:10:08;;;;;;;7.97;5.07;;;;;;;20.13;65.56;100546.81;4914190;29;21718;-84
2022/07/25 01:12:52;;;;;;;11.98;5.20;;;;;;;20.09;66.16;100539.91;4929947;29;20063;-85
2022/07/25 01:15:21;;;;;;;10.43;5.32;;;;;;;20.04;65.77;100550.78;4930262;29;21423;-87
2022/07/25 01:17:49;;;;;;;6.03;5.03;;;;;;;20.02;66.00;100549.97;4932562;29;20123;-85
2022/07/25 01:20:21;;;;;;;8.15;5.55;;;;;;;19.98;65.85;100549.25;4928543;29;20044;-89
2022/07/25 01:22:49;;;;;;;10.35;5.35;;;;;;;19.96;66.21;100548.50;4914688;29;20126;-84
2022/07/25 01:25:18;;;;;;;8.18;5.07;;;;;;;19.95;66.02;100545.94;4929411;29;20046;-84
2022/07/25 01:27:45;;;;;;;6.65;5.20;;;;;;;19.93;65.88;100539.81;4930610;29;20052;-84
2022/07/25 01:30:15;;;;;;;9.70;5.40;;;;;;;19.91;65.59;100539.06;4929114;29;20151;-85
2022/07/25 01:32:43;;;;;;;7.10;4.78;;;;;;;19.91;65.66;100542.56;4932825;29;20043;-84
2022/07/25 01:35:11;;;;;;;6.20;4.78;;;;;;;19.88;65.60;100539.19;4932000;29;20039;-83
2022/07/25 01:37:42;;;;;;;7.53;4.63;;;;;;;19.86;65.30;100533.94;4917794;29;20066;-85
2022/07/25 01:40:09;;;;;;;5.20;4.70;;;;;;;19.82;65.32;100527.94;4933007;29;20499;-85
2022/07/25 01:42:36;;;;;;;7.63;4.80;;;;;;;19.80;65.53;100531.56;4916734;29;20134;-84
2022/07/25 01:45:04;;;;;;;5.90;4.53;;;;;;;19.78;65.08;100526.31;4933206;29;20506;-85
2022/07/25 01:47:37;;;;;;;6.57;5.07;;;;;;;19.77;65.14;100529.06;4932884;29;20102;-84
2022/07/25 01:50:07;;;;;;;9.48;5.35;;;;;;;19.74;65.02;100518.59;4914306;29;20107;-87
2022/07/25 01:52:34;;;;;;;8.77;5.10;;;;;;;19.72;64.97;100523.13;4945153;28;20043;-86
2022/07/25 01:55:01;;;;;;;5.93;4.68;;;;;;;19.70;65.13;100511.69;4934625;29;20059;-84
2022/07/25 01:57:28;;;;;;;5.20;4.70;;;;;;;19.68;64.94;100511.78;4934304;29;20036;-83
2022/07/25 01:59:56;;;;;;;5.28;4.78;;;;;;;19.66;65.00;100511.88;4946811;29;20043;-83
2022/07/25 02:02:27;;;;;;;7.40;4.53;;;;;;;19.67;64.69;100507.41;4931077;28;20530;-87
2022/07/25 02:04:54;;;;;;;5.18;3.75;;;;;;;19.65;64.63;100498.66;4932990;29;20094;-84
2022/07/25 02:07:21;;;;;;;7.00;4.57;;;;;;;19.65;64.30;100503.97;4917291;29;20395;-87
2022/07/25 02:09:48;;;;;;;4.95;3.78;;;;;;;19.63;63.76;100498.75;4931050;29;20528;-83
2022/07/25 02:12:14;;;;;;;4.28;3.80;;;;;;;19.65;63.47;100499.50;4931345;29;20140;-84
2022/07/25 02:14:41;;;;;;;5.55;3.90;;;;;;;19.64;62.98;100489.81;4930313;29;20044;-86
2022/07/25 02:17:08;;;;;;;4.82;3.97;;;;;;;19.64;62.50;100491.63;4933632;29;20058;-83
2022/07/25 02:19:35;;;;;;;5.07;4.55;;;;;;;19.67;62.23;100492.34;4915133;29;20055;-83
2022/07/25 02:22:02;;;;;;;4.00;3.42;;;;;;;19.67;61.79;100489.69;4934044;29;20039;-85
2022/07/25 02:24:32;;;;;;;4.93;4.47;;;;;;;19.67;61.21;100481.72;4932453;29;20056;-87
2022/07/25 02:26:59;;;;;;;4.30;3.90;;;;;;;19.70;61.24;100475.41;4933025;29;20498;-86
2022/07/25 02:29:26;;;;;;;7.55;4.43;;;;;;;19.72;60.86;100483.28;4930961;29;20542;-86
2022/07/25 02:31:53;;;;;;;5.55;4.05;;;;;;;19.71;61.29;100474.47;4934952;29;20598;-86
2022/07/25 02:34:19;;;;;;;4.05;3.65;;;;;;;19.67;61.14;100468.44;4932200;28;20119;-85
2022/07/25 02:36:46;;;;;;;4.40;3.70;;;;;;;19.65;61.23;100470.31;4916560;29;20667;-84
2022/07/25 02:39:13;;;;;;;4.18;3.88;;;;;;;19.63;61.59;100463.34;4931289;29;20068;-84
2022/07/25 02:41:40;;;;;;;4.22;3.92;;;;;;;19.59;61.66;100459.13;4916957;29;20047;-87
2022/07/25 02:44:10;;;;;;;4.57;4.10;;;;;;;19.55;61.87;100455.75;4926035;29;20050;-84
2022/07/25 02:46:36;;;;;;;5.13;4.40;;;;;;;19.52;61.83;100461.25;4931832;29;20100;-85
2022/07/25 02:49:03;;;;;;;4.22;3.88;;;;;;;19.49;61.97;100456.94;4915694;29;20070;-85
2022/07/25 02:51:30;;;;;;;3.88;3.38;;;;;;;19.47;61.75;100447.34;4917878;29;20612;-85
2022/07/25 02:53:57;;;;;;;7.20;4.50;;;;;;;19.46;61.59;100451.78;4919656;29;20056;-89
2022/07/25 02:56:24;;;;;;;4.07;3.67;;;;;;;19.47;61.37;100450.84;4936625;29;20043;-89
2022/07/25 02:58:51;;;;;;;3.78;3.45;;;;;;;19.47;61.38;100450.84;4935174;29;20051;-89
2022/07/25 03:01:17;;;;;;;4.43;3.35;;;;;;;19.47;61.05;100453.50;4940617;29;20061;-86
2022/07/25 03:03:44;;;;;;;4.03;3.72;;;;;;;19.47;60.95;100439.38;4944839;29;20047;-87
2022/07/25 03:06:11;;;;;;;4.43;3.47;;;;;;;19.49;60.67;100441.00;4951044;29;20047;-85
2022/07/25 03:08:37;;;;;;;3.63;3.35;;;;;;;19.50;60.35;100434.78;4945411;29;20072;-85
2022/07/25 03:11:04;;;;;;;6.75;3.10;;;;;;;19.53;60.13;100439.06;4948806;29;20108;-83
2022/07/25 03:13:32;;;;;;;4.18;3.55;;;;;;;19.56;59.82;100443.38;4943083;29;20042;-83
2022/07/25 03:16:02;;;;;;;3.92;3.20;;;;;;;19.58;59.32;100438.81;4947455;28;20055;-82
2022/07/25 03:18:30;;;;;;;5.47;3.63;;;;;;;19.59;59.17;100438.75;4946333;29;20103;-83
2022/07/25 03:21:00;;;;;;;3.10;2.90;;;;;;;19.58;59.16;100439.69;4930994;29;20040;-84
2022/07/25 03:23:27;;;;;;;3.30;3.10;;;;;;;19.58;58.90;100436.16;4961415;28;20047;-84
2022/07/25 03:25:55;;;;;;;3.55;3.20;;;;;;;19.56;59.05;100433.59;4947816;29;20040;-84
2022/07/25 03:28:24;;;;;;;3.70;3.40;;;;;;;19.57;58.91;100435.31;4941168;29;20044;-86
2022/07/25 03:30:55;;;;;;;5.35;2.95;;;;;;;19.54;58.79;100430.16;4935327;29;20119;-85
2022/07/25 03:33:23;;;;;;;3.30;2.95;;;;;;;19.57;58.56;100432.66;4932844;29;20040;-84
2022/07/25 03:35:52;;;;;;;4.75;3.17;;;;;;;19.58;58.25;100430.84;4932974;29;20108;-84
2022/07/25 03:38:19;;;;;;;2.90;2.72;;;;;;;19.61;57.97;100422.75;4917007;29;20137;-84
2022/07/25 03:40:45;;;;;;;5.55;3.63;;;;;;;19.64;57.91;100431.41;4934110;29;20095;-85
2022/07/25 03:43:12;;;;;;;4.93;3.30;;;;;;;19.67;57.60;100422.44;4931169;29;20148;-85
2022/07/25 03:45:39;;;;;;;2.90;2.70;;;;;;;19.68;57.44;100426.81;4932892;29;20036;-85
2022/07/25 03:48:06;;;;;;;4.45;2.70;;;;;;;19.69;57.23;100417.91;4947856;29;20118;-91
2022/07/25 03:50:33;;;;;;;5.43;3.05;;;;;;;19.72;56.94;100419.56;4915367;29;20091;-84
2022/07/25 03:52:59;;;;;;;2.72;2.50;;;;;;;19.75;56.64;100412.28;4921177;29;20039;-85
2022/07/25 03:55:26;;;;;;;4.03;2.80;;;;;;;19.79;56.38;100408.53;4916615;29;20406;-84
2022/07/25 03:57:53;;;;;;;3.22;2.42;;;;;;;19.82;56.33;100408.41;4929694;29;20032;-86
2022/07/25 04:00:20;;;;;;;3.42;3.10;;;;;;;19.83;56.27;100403.97;4918417;29;20044;-85
2022/07/25 04:02:47;;;;;;;4.18;3.10;;;;;;;19.85;56.27;100404.72;4912375;29;20047;-84
2022/07/25 04:05:14;;;;;;;3.03;2.80;;;;;;;19.86;55.94;100403.78;4935182;29;20487;-85
2022/07/25 04:07:41;;;;;;;4.32;2.90;;;;;;;19.90;55.84;100396.53;4932212;29;20114;-87
2022/07/25 04:10:09;;;;;;;8.18;2.95;;;;;;;19.94;55.50;100398.09;4934780;29;21130;-86
2022/07/25 04:12:40;;;;;;;5.45;2.88;;;;;;;19.97;55.36;100396.13;4915695;29;20300;-86
2022/07/25 04:15:07;;;;;;;5.45;3.80;;;;;;;20.01;55.16;100396.81;4929692;29;20102;-84
2022/07/25 04:17:34;;;;;;;5.85;2.65;;;;;;;20.05;54.82;100385.09;4936314;29;20064;-84
2022/07/25 04:20:02;;;;;;;3.22;2.72;;;;;;;20.12;54.52;100388.28;4945433;29;20054;-83
2022/07/25 04:22:29;;;;;;;2.83;2.60;;;;;;;20.17;54.46;100381.78;4929903;29;20044;-85
2022/07/25 04:24:58;;;;;;;6.68;3.05;;;;;;;20.26;54.04;100374.25;4931218;29;20094;-86
2022/07/25 04:27:26;;;;;;;3.03;2.65;;;;;;;20.28;53.75;100373.22;4935091;29;20499;-86
2022/07/25 04:29:53;;;;;;;3.17;2.78;;;;;;;20.36;53.75;100375.47;4943630;29;20016;-90
2022/07/25 04:32:22;;;;;;;4.65;3.33;;;;;;;20.39;53.47;100367.34;4948018;29;20206;-89
2022/07/25 04:34:50;;;;;;;5.95;3.22;;;;;;;20.47;53.43;100366.91;4948848;29;20095;-91
2022/07/25 04:37:20;;;;;;;4.80;3.15;;;;;;;20.50;53.02;100362.28;4932882;29;20047;-88
2022/07/25 04:39:49;;;;;;;2.85;2.65;;;;;;;20.57;53.17;100357.50;4946349;29;20923;-88
2022/07/25 04:42:16;;;;;;;5.97;2.63;;;;;;;20.60;52.85;100346.69;4926334;29;20462;-85
2022/07/25 04:44:43;;;;;;;2.53;2.42;;;;;;;20.67;52.87;100344.53;4924470;29;20091;-91
2022/07/25 04:47:10;;;;;;;3.20;2.90;;;;;;;20.74;52.57;100339.75;4933367;29;20036;-84
2022/07/25 04:49:36;;;;;;;3.40;2.80;;;;;;;20.77;52.45;100334.28;4933493;29;20107;-84
2022/07/25 04:52:06;;;;;;;3.00;2.80;;;;;;;20.83;52.63;100331.25;4922459;29;20067;-85
2022/07/25 04:54:33;;;;;;;2.63;2.53;;;;;;;20.87;52.43;100321.28;4917606;29;20131;-85
2022/07/25 04:56:59;;;;;;;3.25;2.70;;;;;;;20.91;52.45;100321.03;4915678;29;20068;-86
2022/07/25 04:59:27;;;;;;;5.40;2.70;;;;;;;20.94;52.47;100320.84;4931770;29;20050;-86
2022/07/25 05:01:58;;;;;;;3.03;2.83;;;;;;;20.98;52.58;100318.88;4933516;29;20447;-87
2022/07/25 05:04:25;;;;;;;2.97;2.67;;;;;;;21.01;52.66;100318.69;4934997;29;20590;-85
2022/07/25 05:06:52;;;;;;;4.72;2.72;;;;;;;21.02;52.82;100312.44;4920433;29;20113;-88
2022/07/25 05:09:20;;;;;;;5.65;4.10;;;;;;;21.05;52.59;100312.22;4934485;29;20043;-85
2022/07/25 05:11:47;;;;;;;3.85;3.25;;;;;;;21.09;52.55;100311.13;4945126;29;20502;-87
2022/07/25 05:14:14;;;;;;;4.05;3.15;;;;;;;21.11;52.36;100311.88;4935833;29;20443;-84
2022/07/25 05:16:42;;;;;;;3.28;2.97;;;;;;;21.16;52.42;100308.97;4918575;29;20050;-85
2022/07/25 05:19:15;;;;;;;6.82;2.70;;;;;;;21.19;52.31;100307.94;4935951;29;20040;-84
2022/07/25 05:21:47;;;;;;;2.47;2.22;;;;;;;21.27;52.27;100310.97;4934779;29;20451;-86
2022/07/25 05:24:13;;;;;;;5.05;3.30;;;;;;;21.31;51.93;100305.41;4933953;29;20043;-84
2022/07/25 05:26:41;;;;;;;4.40;2.53;;;;;;;21.38;51.57;100305.88;4935874;29;20127;-85
2022/07/25 05:29:12;;;;;;;5.30;2.97;;;;;;;21.43;51.42;100298.47;4934172;29;20082;-85
2022/07/25 05:31:43;;;;;;;4.22;2.97;;;;;;;21.49;51.30;100299.91;4917407;29;20138;-83
2022/07/25 05:34:18;;;;;;;3.22;3.03;;;;;;;21.55;51.33;100299.56;4917984;29;20103;-85
2022/07/25 05:36:46;;;;;;;4.60;3.33;;;;;;;21.60;51.09;100292.16;4933174;29;20545;-87
2022/07/25 05:39:13;;;;;;;4.63;2.88;;;;;;;21.66;51.21;100296.25;4933679;29;20135;-85
2022/07/25 05:41:40;;;;;;;3.78;2.97;;;;;;;21.70;51.07;100291.59;4935954;29;20423;-85
2022/07/25 05:44:08;;;;;;;3.67;3.13;;;;;;;21.75;51.02;100298.34;4939810;29;20764;-89
2022/07/25 05:46:36;;;;;;;3.88;2.92;;;;;;;21.80;50.90;100296.25;4934600;29;20605;-84
2022/07/25 05:49:02;;;;;;;3.47;2.90;;;;;;;21.85;50.69;100282.66;4918908;29;20055;-84
2022/07/25 05:51:29;;;;;;;5.97;3.13;;;;;;;21.91;50.88;100286.75;4930719;29;20176;-84
2022/07/25 05:53:59;;;;;;;3.03;2.80;;;;;;;22.00;50.69;100283.50;4919675;29;20055;-86
2022/07/25 05:56:29;;;;;;;2.78;2.58;;;;;;;22.08;50.37;100283.84;4913995;29;20082;-85
2022/07/25 05:58:58;;;;;;;3.10;2.80;;;;;;;22.16;50.06;100275.38;4920826;29;20475;-88
2022/07/25 06:01:26;;;;;;;2.88;2.72;;;;;;;22.28;49.80;100277.28;4932188;29;20055;-85
2022/07/25 06:03:52;;;;;;;6.85;3.08;;;;;;;22.40;49.25;100274.81;4931141;29;20071;-89
2022/07/25 06:06:19;;;;;;;3.55;3.25;;;;;;;22.50;49.18;100270.56;4932432;29;20475;-85
2022/07/25 06:08:46;;;;;;;3.17;2.95;;;;;;;22.57;48.81;100263.88;4932578;29;20438;-82
2022/07/25 06:11:13;;;;;;;5.93;3.42;;;;;;;22.68;47.91;100265.84;4933563;29;20539;-86
2022/07/25 06:13:40;;;;;;;3.17;2.97;;;;;;;22.78;48.36;100261.59;4933126;29;20044;-83
2022/07/25 06:16:07;;;;;;;5.72;3.17;;;;;;;22.86;47.96;100258.44;4931454;29;20048;-84
2022/07/25 06:18:37;;;;;;;4.13;3.70;;;;;;;22.98;47.66;100269.25;4930779;29;20048;-86
2022/07/25 06:21:07;;;;;;;3.58;3.30;;;;;;;23.06;47.65;100261.56;4933246;29;20043;-90
2022/07/25 06:23:34;;;;;;;3.78;2.80;;;;;;;23.16;47.48;100254.69;4934565;29;20096;-86
2022/07/25 06:26:01;;;;;;;4.22;3.30;;;;;;;23.27;47.45;100257.47;4931426;29;20494;-84
2022/07/25 06:28:27;;;;;;;5.50;3.30;;;;;;;23.41;46.84;100244.97;4928699;29;20050;-86
2022/07/25 06:30:59;;;;;;;3.78;3.47;;;;;;;23.58;46.55;100254.50;4922366;29;20110;-87
2022/07/25 06:33:26;;;;;;;5.50;4.00;;;;;;;23.75;46.25;100245.28;4931738;29;20051;-84
2022/07/25 06:35:55;;;;;;;6.38;3.42;;;;;;;23.93;45.74;100249.34;4919285;29;20039;-88
2022/07/25 06:38:22;;;;;;;4.13;3.72;;;;;;;24.12;45.59;100240.00;4950126;28;20130;-85
2022/07/25 06:40:50;;;;;;;3.80;2.80;;;;;;;24.31;45.26;100236.00;4934926;29;20069;-87
2022/07/25 06:43:17;;;;;;;5.22;3.30;;;;;;;24.47;44.80;100231.22;4935154;29;20323;-86
2022/07/25 06:45:46;;;;;;;3.80;3.50;;;;;;;24.61;44.47;100228.38;4937664;29;20499;-90
2022/07/25 06:48:15;;;;;;;5.72;4.80;;;;;;;24.75;44.08;100230.03;4935481;29;20052;-83
2022/07/25 06:50:42;;;;;;;3.70;3.40;;;;;;;24.93;44.08;100224.25;4948311;29;20047;-91
2022/07/25 06:53:12;;;;;;;5.05;3.00;;;;;;;25.07;43.59;100221.38;4938310;29;20046;-84
2022/07/25 06:55:38;;;;;;;7.80;4.57;;;;;;;25.16;43.06;100214.47;4933479;29;20090;-87
2022/07/25 06:58:05;;;;;;;4.25;3.90;;;;;;;25.21;42.92;100220.31;4936031;29;20055;-85
2022/07/25 07:00:35;;;;;;;5.30;4.25;;;;;;;25.25;43.07;100220.91;4933949;28;20654;-86
2022/07/25 07:03:02;;;;;;;4.25;3.85;;;;;;;25.26;42.99;100226.13;4916753;29;20459;-84
2022/07/25 07:05:36;;;;;;;4.15;3.75;;;;;;;25.30;42.92;100218.72;4930811;29;20047;-85
2022/07/25 07:08:04;;;;;;;4.78;4.38;;;;;;;25.32;42.88;100208.75;4929342;29;20496;-85
2022/07/25 07:10:31;;;;;;;4.32;3.70;;;;;;;25.37;42.92;100217.31;4936038;29;20569;-87
2022/07/25 07:13:16;;;;;;;9.60;4.93;;;;;;;25.50;42.45;100195.78;4939725;29;20044;-84
2022/07/25 07:15:48;;;;;;;5.82;4.25;;;;;;;25.74;42.22;100203.66;4955140;29;20040;-85
2022/07/25 07:18:20;;;;;;;3.67;3.47;;;;;;;26.15;41.76;100200.47;4943766;29;20047;-88
2022/07/25 07:20:50;;;;;;;4.45;4.05;;;;;;;26.64;40.70;100206.28;4940743;29;20067;-85
2022/07/25 07:23:20;;;;;;;3.72;3.45;;;;;;;27.19;39.71;100206.97;4935350;29;20146;-84
2022/07/25 07:25:59;;;;;;;4.72;4.38;;;;;;;27.76;39.22;100195.81;4935351;29;20256;-84
2022/07/25 07:28:28;;;;;;;7.82;4.20;;;;;;;28.55;37.74;100191.44;4946175;28;20078;-84
2022/07/25 07:30:55;;;;;;;5.28;4.78;;;;;;;29.05;37.15;100191.25;4931157;29;20039;-84
2022/07/25 07:33:22;;;;;;;4.45;3.83;;;;;;;29.38;36.69;100193.63;4927571;29;20428;-83
2022/07/25 07:35:49;;;;;;;4.50;4.10;;;;;;;29.51;35.69;100177.94;4928618;29;20044;-87
2022/07/25 07:38:16;;;;;;;7.28;4.40;;;;;;;29.65;35.70;100183.88;4936463;29;20054;-83
2022/07/25 07:40:45;;;;;;;4.55;4.25;;;;;;;29.76;35.71;100182.81;4932812;29;20059;-86
2022/07/25 07:43:15;;;;;;;4.53;3.65;;;;;;;30.01;35.54;100178.56;4932001;29;20047;-84
2022/07/25 07:45:45;;;;;;;5.30;4.03;;;;;;;30.46;34.28;100172.28;4933074;29;20051;-87
2022/07/25 07:48:14;;;;;;;8.63;4.40;;;;;;;30.93;33.50;100176.56;4918819;29;20095;-83
2022/07/25 07:50:41;;;;;;;5.05;4.57;;;;;;;31.35;33.14;100166.84;4934222;29;20439;-84
2022/07/25 07:53:09;;;;;;;4.55;4.15;;;;;;;31.71;32.51;100165.84;4933445;28;20413;-84
2022/07/25 07:55:44;;;;;;;4.22;3.92;;;;;;;32.19;32.22;100163.47;4927851;29;20051;-86
2022/07/25 07:58:17;;;;;;;7.57;4.20;;;;;;;32.39;31.52;100164.03;4930156;29;20048;-85
2022/07/25 08:00:50;;;;;;;4.88;4.47;;;;;;;32.30;31.52;100164.00;4914689;29;20054;-85
2022/07/25 08:03:20;;;;;;;4.50;4.20;;;;;;;32.10;31.34;100154.47;4929824;29;20055;-86
2022/07/25 08:05:51;;;;;;;6.18;4.70;;;;;;;32.04;32.04;100161.38;4910265;29;20075;-85
2022/07/25 08:08:22;;;;;;;4.05;3.65;;;;;;;32.16;31.53;100160.06;4920504;29;20043;-86
2022/07/25 08:10:51;;;;;;;5.05;4.28;;;;;;;32.48;31.55;100161.13;4934900;29;20094;-85
2022/07/25 08:13:28;;;;;;;4.65;4.35;;;;;;;33.13;30.61;100153.97;4918459;29;20048;-85
2022/07/25 08:15:59;;;;;;;6.25;4.97;;;;;;;33.52;29.64;100156.91;4933999;29;20086;-86
2022/07/25 08:18:35;;;;;;;5.40;4.90;;;;;;;33.78;28.45;100148.47;4929650;29;20036;-86
2022/07/25 08:21:06;;;;;;;4.75;4.45;;;;;;;33.67;29.11;100151.59;4922517;29;20044;-85
2022/07/25 08:23:37;;;;;;;4.80;4.35;;;;;;;33.79;28.52;100145.63;4927340;28;20123;-86
2022/07/25 08:26:10;;;;;;;4.85;4.10;;;;;;;33.84;27.82;100146.97;4913277;29;20059;-85
2022/07/25 08:28:37;;;;;;;5.50;5.00;;;;;;;34.48;27.55;100141.25;4913932;29;20061;-89
2022/07/25 08:31:09;;;;;;;6.15;4.53;;;;;;;35.21;26.91;100144.28;4927858;29;20043;-85
2022/07/25 08:33:36;;;;;;;5.80;5.03;;;;;;;35.62;26.67;100140.25;4932716;29;20047;-85
2022/07/25 08:36:04;;;;;;;5.85;5.00;;;;;;;35.89;26.14;100138.72;4914900;29;20146;-86
2022/07/25 08:38:34;;;;;;;5.40;5.03;;;;;;;36.32;25.51;100139.75;4929350;29;20045;-85
2022/07/25 08:41:09;;;;;;;4.93;4.55;;;;;;;36.66;24.74;100139.06;4930283;29;20641;-84
2022/07/25 08:43:45;;;;;;;5.85;5.30;;;;;;;36.45;24.51;100137.19;4933297;29;20131;-86
2022/07/25 08:46:17;;;;;;;5.25;4.85;;;;;;;36.14;25.60;100132.91;4917327;29;20055;-88
2022/07/25 08:48:51;;;;;;;5.22;4.82;;;;;;;36.02;25.33;100129.00;4928525;29;20300;-88
2022/07/25 08:51:19;;;;;;;5.38;4.78;;;;;;;35.90;24.71;100134.09;4913671;29;20059;-85
2022/07/25 08:53:50;;;;;;;5.72;5.25;;;;;;;35.49;25.42;100121.88;4933084;29;20032;-85
2022/07/25 08:56:20;;;;;;;5.18;4.80;;;;;;;35.38;25.52;100119.66;4931631;29;20051;-87
2022/07/25 08:58:50;;;;;;;5.15;4.72;;;;;;;35.56;25.50;100114.63;4931962;29;20527;-88
2022/07/25 09:01:17;;;;;;;5.47;4.80;;;;;;;35.97;24.91;100115.09;4919083;29;20055;-85
2022/07/25 09:03:52;;;;;;;5.38;4.97;;;;;;;36.39;24.23;100110.72;4931438;29;20052;-85
2022/07/25 09:06:22;;;;;;;5.97;5.45;;;;;;;36.70;24.41;100106.75;4912551;29;20416;-84
2022/07/25 09:08:59;;;;;;;5.35;4.82;;;;;;;36.58;24.09;100106.47;4933063;29;20118;-84
2022/07/25 09:11:35;;;;;;;5.90;5.35;;;;;;;36.20;24.83;100109.47;4926144;29;20060;-91
2022/07/25 09:14:12;;;;;;;4.57;4.28;;;;;;;36.75;24.08;100104.28;4932223;29;20048;-84
2022/07/25 09:16:47;;;;;;;5.53;5.10;;;;;;;37.08;23.82;100101.78;4914852;29;20059;-86
2022/07/25 09:26:36;;;;;;;4.72;4.43;;;;;;;37.19;23.41;100100.34;4852278;29;20609;-84
2022/07/25 09:29:03;;;;;;;5.43;5.13;;;;;;;37.15;23.93;100096.34;4857880;29;20113;-84
2022/07/25 09:31:33;;;;;;;5.53;5.03;;;;;;;37.25;23.11;100104.19;4926780;29;20082;-84
2022/07/25 09:34:06;;;;;;;5.40;5.00;;;;;;;37.10;23.32;100089.84;4951384;29;20058;-86
2022/07/25 09:36:38;;;;;;;5.20;4.90;;;;;;;36.81;23.75;100092.56;4939225;29;20052;-84
2022/07/25 09:39:07;;;;;;;5.50;5.00;;;;;;;36.43;24.12;100095.66;4934805;29;20108;-91
2022/07/25 09:41:52;;;;;;;5.50;5.10;;;;;;;36.30;24.40;100081.88;4950056;29;20035;-86
2022/07/25 09:44:29;;;;;;;5.13;4.78;;;;;;;36.70;23.39;100084.94;4932192;29;20098;-85
2022/07/25 09:47:15;;;;;;;4.88;4.47;;;;;;;37.33;22.62;100084.94;4916564;29;20731;-86
2022/07/25 09:49:46;;;;;;;6.28;4.97;;;;;;;37.66;22.56;100081.44;4926507;29;20043;-87
2022/07/25 09:52:15;;;;;;;6.13;5.72;;;;;;;38.07;22.54;100085.16;4933142;29;20126;-88
2022/07/25 09:54:42;;;;;;;4.50;4.18;;;;;;;38.47;21.90;100084.31;4933124;29;20047;-88
2022/07/25 09:57:11;;;;;;;5.00;4.68;;;;;;;38.92;21.53;100069.94;4917630;29;20078;-92
2022/07/25 09:59:38;;;;;;;5.38;4.85;;;;;;;38.60;21.78;100076.09;4934790;29;20040;-86
2022/07/25 10:02:12;;;;;;;6.22;5.70;;;;;;;38.59;21.77;100074.41;4922215;29;20051;-91
2022/07/25 10:04:48;;;;;;;5.25;4.78;;;;;;;39.26;21.22;100065.25;4935710;29;20052;-86
2022/07/25 10:07:21;;;;;;;4.60;4.13;;;;;;;40.12;20.91;100063.09;4944019;29;20170;-85
2022/07/25 10:09:54;;;;;;;5.72;4.68;;;;;;;40.88;20.13;100052.03;4928678;29;20047;-89
2022/07/25 10:12:23;;;;;;;5.15;4.82;;;;;;;41.22;19.41;100055.22;4934555;29;20051;-84
2022/07/25 10:15:14;;;;;;;5.18;4.57;;;;;;;42.12;18.76;100050.75;4945505;29;20036;-88
2022/07/25 10:17:43;;;;;;;4.50;4.30;;;;;;;42.19;18.23;100057.00;4929360;29;20043;-85
2022/07/25 10:20:11;;;;;;;5.07;4.55;;;;;;;41.15;19.12;100052.56;4938489;29;20449;-85
2022/07/25 10:22:46;;;;;;;5.47;5.10;;;;;;;40.43;19.53;100042.97;4934069;29;20039;-84
2022/07/25 10:25:21;;;;;;;5.28;4.78;;;;;;;40.00;19.84;100036.34;4924961;29;20039;-86
2022/07/25 10:27:59;;;;;;;5.05;4.47;;;;;;;39.95;20.14;100029.84;4921074;29;20055;-86
2022/07/25 10:30:40;;;;;;;5.15;4.70;;;;;;;40.81;19.32;100028.22;4919316;29;20142;-87
2022/07/25 10:33:18;;;;;;;4.65;4.30;;;;;;;41.53;18.68;100023.16;4933857;29;20102;-85
2022/07/25 10:35:46;;;;;;;4.88;4.68;;;;;;;41.60;18.86;100030.19;4920051;29;20463;-91
2022/07/25 10:38:12;;;;;;;5.65;5.15;;;;;;;41.67;19.20;100022.69;4936730;29;20173;-86
2022/07/25 10:40:46;;;;;;;5.20;4.90;;;;;;;41.98;18.41;100015.25;4933044;29;20051;-87
2022/07/25 10:43:29;;;;;;;6.05;4.70;;;;;;;42.14;18.44;100032.13;4936539;29;20040;-86
2022/07/25 10:45:59;;;;;;;5.38;4.88;;;;;;;42.78;18.22;100017.66;4930739;29;20127;-89
2022/07/25 10:48:30;;;;;;;5.25;4.85;;;;;;;43.29;17.40;100021.44;4934246;29;20107;-86
2022/07/25 10:51:02;;;;;;;5.20;4.80;;;;;;;43.32;17.25;100028.38;4934714;29;20078;-85
2022/07/25 10:53:47;;;;;;;4.28;3.97;;;;;;;43.75;16.79;100018.69;4934192;29;20122;-89
2022/07/25 10:59:06;;;;;;;5.43;4.80;;;;;;;42.66;18.33;100023.16;4936443;29;20035;-86
2022/07/25 11:01:35;;;;;;;5.00;4.70;;;;;;;41.67;18.88;100006.19;4932897;29;20048;-86
2022/07/25 11:04:15;;;;;;;5.47;4.97;;;;;;;40.03;20.06;100008.50;4916815;29;20071;-85
2022/07/25 11:06:44;;;;;;;5.45;4.97;;;;;;;38.97;21.61;100010.81;4931406;28;20109;-86
2022/07/25 11:09:20;;;;;;;5.70;5.22;;;;;;;38.33;22.25;100007.81;4931510;29;20057;-84
2022/07/25 11:11:54;;;;;;;4.55;4.25;;;;;;;38.20;22.19;100005.88;4931910;29;20047;-84
2022/07/25 11:14:32;;;;;;;4.05;3.85;;;;;;;38.18;21.97;99990.75;4933346;29;20067;-84
2022/07/25 11:17:24;;;;;;;5.82;5.32;;;;;;;37.57;22.47;99985.25;4930622;29;20047;-85
2022/07/25 11:20:08;;;;;;;6.07;4.70;;;;;;;37.22;22.93;99976.31;4919364;29;20040;-86
2022/07/25 11:22:36;;;;;;;5.15;4.68;;;;;;;36.79;23.17;99974.66;4936507;29;20139;-90
2022/07/25 11:25:14;;;;;;;5.18;4.70;;;;;;;36.30;24.07;99959.25;4921705;29;20050;-85
2022/07/25 11:27:41;;;;;;;5.45;4.95;;;;;;;35.56;24.75;99964.91;4916080;29;20048;-83
2022/07/25 11:30:15;;;;;;;5.68;5.18;;;;;;;34.92;25.63;99981.97;4933412;29;20040;-87
2022/07/25 11:32:45;;;;;;;6.05;5.55;;;;;;;34.57;26.04;99976.25;4931551;29;20067;-85
2022/07/25 11:35:16;;;;;;;6.35;5.60;;;;;;;34.36;26.17;99974.28;4917054;29;20043;-84
2022/07/25 11:37:47;;;;;;;5.55;5.05;;;;;;;34.43;26.42;99984.22;4933706;29;20050;-83
2022/07/25 11:40:24;;;;;;;5.45;5.13;;;;;;;34.77;25.88;99977.38;4932062;29;20103;-85
2022/07/25 11:43:00;;;;;;;5.75;5.10;;;;;;;35.00;26.03;99968.25;4929585;29;20036;-84
2022/07/25 11:45:32;;;;;;;6.35;5.75;;;;;;;35.19;25.66;99965.97;4916702;29;20062;-84